Airfield :
LOGIN :

Register | Disclaimer

   EN    FR    IT 

 










Legend :    VFR   Marginal VFR   IFR   Intensive IFR   Very Intensive IFR
Visi :
Ceiling :
>= 8 km
>= 3000ft
5 to 8 km
1000 to 3000 ft
1500m to 5 km
500 to 1000 ft
800 to 1500m
200 to 500 ft
< 800m
< 200 ft
Symbols :   Thunderstorms  Fog  Heavy snow  Heavy precipitations  Wind > 20 kt
SIGMETs :     Misc.  Thunderstorms  Icing  Turbulence  Mountain Waves  Volcanic Ashes







- Airport Elevation : 195 ft
- Download approach charts


LFMY - Salon de Provence

CURRENT METAR :
  • 222130Z AUTO VRB03KT 9999 BKN018 15/14 Q1016

EXPIRED METARs :
  • 222100Z AUTO VRB01KT 9999 BKN021 16/14 Q1016
  • 222030Z AUTO VRB02KT 9999 FEW018 BKN040 16/14 Q1016
  • 222000Z AUTO VRB01KT 9999 BKN023 BKN033 OVC039 16/15 Q1016
  • 221930Z AUTO 08003KT 9999 BKN026 OVC032 16/15 Q1015
  • 221900Z AUTO 05001KT 9999 BKN026 17/15 Q1015
  • 221830Z AUTO VRB02KT 9999 BKN028/// BKN110/// BKN170/// ///TCU 17/16 Q1015 BECMG SCT030

TAF TAF LFMY
Valid from the 22 at 15:00 until the 23 at 15:00 UTC


221400Z 2215/2315 22010KT 9999 SCT030
TEMPO 2215/2219 VRB15G25KT 3000 TSRA SCT015 BKN030CB
BECMG 2222/2224 07003KT
BECMG 2310/2312 22010KT
No reported NOTAMs for that airfield.
1 SIGMET reported for the Marseille FIR (LFMM) :
 
Embedded thunderstorms
LFMM SIGMET 5 VALID 222000/222200 LFPW
LFMM MARSEILLE FIR/UIR EMBD TS OBS WI N4630 E00415 - N4630 E00515 - N4500 E00530 - N4500 E00445 - N4630 E00415 TOP FL320 MOV E 10KT NC=



MET'MAP, your aeronautical weather chart ! - Copyright ORBIFLY December 2007 - Disclaimer

ORBIFLY MET'MAP TEAM :

Programming & Development : Alexandra Zaïnal
Concept & Development : Baudouin d'Aumeries
Co-Development & Prog : Marc-Olivier Méhu
Technical & hardware support : Manuel Goepfert

Contact : metmap@orbifly.com




SOURCES & CREDITS :

   NOAA